Aviation Digital Data Service (ADDS)

Output produced by METARs form (0908 UTC 02 September 2014)
found at http://aviationweather.gov/adds/metars/
 
KLCH 020902Z 14003KT 10SM -RA FEW018 FEW026 26/25 A2997 RMK AO2 RAB0855 TSE0856 P0000 T02560250